createdAt,value
2018-12-21T00:00:01.799Z,51.33
2018-12-21T00:02:31.399Z,52.33
2018-12-21T00:05:00.971Z,53.00
2018-12-21T00:07:30.702Z,51.02
2018-12-21T00:10:00.667Z,53.17
2018-12-21T00:12:30.260Z,53.28
2018-12-21T00:15:00.074Z,49.25
2018-12-21T00:17:34.462Z,48.23
2018-12-21T00:19:59.653Z,46.68
2018-12-21T00:22:29.315Z,46.35
2018-12-21T00:24:58.782Z,46.23
2018-12-21T00:27:28.414Z,48.52
2018-12-21T00:29:58.004Z,47.17
2018-12-21T00:32:32.641Z,49.15
2018-12-21T00:35:07.470Z,46.75
2018-12-21T00:37:42.233Z,50.15
2018-12-21T00:40:16.903Z,48.35
2018-12-21T00:42:51.691Z,48.20
2018-12-21T00:45:24.514Z,45.67
2018-12-21T00:47:54.467Z,46.55
2018-12-21T00:50:23.877Z,45.25
2018-12-21T00:52:53.399Z,46.18
2018-12-21T01:12:45.393Z,44.60
2018-12-21T01:15:15.132Z,45.05
2018-12-21T01:17:44.713Z,44.95
2018-12-21T01:20:14.562Z,43.87
2018-12-21T01:22:44.163Z,46.88
2018-12-21T01:25:13.811Z,47.13
2018-12-21T01:27:44.247Z,46.92
2018-12-21T01:30:13.743Z,46.13
2018-12-21T01:32:43.387Z,45.28
2018-12-21T01:35:13.168Z,45.55
2018-12-21T01:37:42.592Z,45.73
2018-12-21T01:40:12.240Z,44.67
2018-12-21T01:42:42.160Z,43.78
2018-12-21T01:45:11.843Z,44.18
2018-12-21T01:47:41.533Z,45.20
2018-12-21T01:50:11.385Z,46.15
2018-12-21T01:52:40.929Z,46.37
2018-12-21T01:55:10.599Z,44.98
2018-12-21T01:57:40.591Z,46.00
2018-12-21T02:00:10.469Z,45.88
2018-12-21T02:02:40.397Z,44.70
2018-12-21T02:05:09.943Z,45.83
2018-12-21T02:07:39.744Z,45.23
2018-12-21T02:10:09.272Z,46.98
2018-12-21T02:12:38.640Z,47.67
2018-12-21T02:15:08.466Z,47.25
2018-12-21T02:17:38.106Z,47.75
2018-12-21T02:20:08.084Z,47.17
2018-12-21T02:22:37.775Z,47.08
2018-12-21T02:25:07.468Z,47.23
2018-12-21T02:27:37.032Z,50.00
2018-12-21T02:30:07.900Z,48.98
2018-12-21T02:32:37.949Z,53.78
2018-12-21T02:35:07.473Z,55.15
2018-12-21T02:54:59.711Z,52.80
2018-12-21T03:14:51.991Z,51.33
2018-12-21T03:34:43.836Z,43.35
2018-12-21T03:57:03.715Z,50.98
2018-12-21T03:59:33.359Z,47.05
2018-12-21T04:02:03.140Z,44.65
2018-12-21T04:04:32.971Z,44.73
2018-12-21T04:07:02.718Z,44.18
2018-12-21T04:09:32.412Z,44.93
2018-12-21T04:12:02.152Z,44.03
2018-12-21T04:14:31.749Z,45.78
2018-12-21T04:17:01.371Z,45.55
2018-12-21T04:19:30.945Z,45.25
2018-12-21T04:22:00.664Z,41.37
2018-12-21T04:24:30.586Z,43.20
2018-12-21T04:27:00.296Z,44.80
2018-12-21T04:29:29.902Z,43.78
2018-12-21T04:31:59.745Z,44.45
2018-12-21T04:34:29.314Z,44.90
2018-12-21T04:36:58.877Z,43.45
2018-12-21T04:39:28.536Z,43.20
2018-12-21T04:41:58.337Z,41.58
2018-12-21T04:44:28.287Z,40.15
2018-12-21T04:46:57.823Z,38.00
2018-12-21T04:49:27.426Z,39.80
2018-12-21T04:51:57.096Z,38.88
2018-12-21T04:54:26.804Z,42.58
2018-12-21T04:56:56.662Z,39.53
2018-12-21T04:59:27.768Z,41.37
2018-12-21T05:01:57.411Z,41.02
2018-12-21T05:04:26.878Z,42.13
2018-12-21T05:06:56.587Z,43.68
2018-12-21T05:09:26.296Z,43.58
2018-12-21T05:11:55.868Z,43.95
2018-12-21T05:14:25.317Z,44.48
2018-12-21T05:16:55.349Z,47.33
2018-12-21T05:19:24.713Z,41.98
2018-12-21T05:21:54.339Z,70.62
2018-12-21T05:24:23.917Z,43.33
2018-12-21T05:26:53.397Z,43.78
2018-12-21T05:29:24.253Z,42.88
2018-12-21T05:31:54.147Z,43.13
2018-12-21T05:34:23.424Z,42.90
2018-12-21T05:36:53.997Z,41.63
2018-12-21T05:39:23.468Z,42.98
2018-12-21T05:41:54.068Z,44.58
2018-12-21T05:44:23.604Z,44.88
2018-12-21T05:46:53.179Z,42.10
2018-12-21T05:49:22.594Z,43.08
2018-12-21T05:51:52.548Z,43.48
2018-12-21T05:54:21.928Z,45.98
2018-12-21T05:56:51.657Z,44.30
2018-12-21T05:59:21.451Z,43.52
2018-12-21T06:01:51.140Z,42.62
2018-12-21T06:04:20.546Z,45.00
2018-12-21T06:06:50.388Z,44.60
2018-12-21T06:09:19.956Z,44.98
2018-12-21T06:11:49.669Z,45.20
2018-12-21T06:14:19.507Z,44.75
2018-12-21T06:16:49.106Z,46.68
2018-12-21T06:19:18.604Z,47.85
2018-12-21T06:21:48.524Z,62.90
2018-12-21T06:24:18.408Z,54.93
2018-12-21T06:26:47.943Z,60.92
2018-12-21T06:29:17.776Z,58.75
2018-12-21T06:31:47.111Z,57.17
2018-12-21T06:34:16.900Z,58.02
2018-12-21T06:36:46.545Z,58.33
2018-12-21T06:39:16.038Z,54.20
2018-12-21T06:41:45.928Z,52.10
2018-12-21T06:44:15.664Z,51.85
2018-12-21T06:46:45.115Z,51.75
2018-12-21T06:49:14.845Z,51.15
2018-12-21T06:51:44.536Z,50.28
2018-12-21T06:54:14.135Z,52.35
2018-12-21T06:56:44.002Z,54.20
2018-12-21T06:59:13.555Z,51.25
2018-12-21T07:01:43.150Z,52.45
2018-12-21T07:04:13.217Z,50.70
2018-12-21T07:06:42.949Z,50.55
2018-12-21T07:09:12.611Z,51.48
2018-12-21T07:11:42.159Z,48.80
2018-12-21T07:14:11.768Z,51.68
2018-12-21T07:16:41.519Z,52.03
2018-12-21T07:19:11.043Z,53.55
2018-12-21T07:21:40.694Z,51.63
2018-12-21T07:24:10.266Z,51.05
2018-12-21T07:26:39.770Z,51.28
2018-12-21T07:29:09.316Z,50.45
2018-12-21T07:31:41.526Z,50.95
2018-12-21T07:34:11.246Z,49.38
2018-12-21T07:36:41.133Z,48.90
2018-12-21T07:39:10.760Z,50.50
2018-12-21T07:41:40.258Z,53.42
2018-12-21T07:44:10.155Z,51.68
2018-12-21T07:46:39.807Z,51.73
2018-12-21T07:49:09.194Z,52.03
2018-12-21T07:51:38.812Z,54.83
2018-12-21T07:54:08.324Z,56.25
2018-12-21T07:56:37.807Z,53.50
2018-12-21T07:59:07.596Z,53.65
2018-12-21T08:01:37.283Z,55.40
2018-12-21T08:04:06.965Z,52.70
2018-12-21T08:06:36.650Z,52.33
2018-12-21T08:09:07.592Z,52.73
2018-12-21T08:11:37.079Z,57.53
2018-12-21T08:14:07.077Z,64.75
2018-12-21T08:16:36.631Z,67.42
2018-12-21T08:19:06.035Z,60.50
2018-12-21T08:21:35.789Z,56.83
2018-12-21T08:24:05.251Z,56.53
2018-12-21T08:26:34.854Z,55.65
2018-12-21T08:29:04.595Z,57.93
2018-12-21T08:31:34.375Z,63.02
2018-12-21T08:34:05.304Z,65.00
2018-12-21T08:36:35.036Z,65.28
2018-12-21T08:39:05.179Z,97.53
2018-12-21T08:41:34.925Z,68.10
2018-12-21T08:44:04.608Z,61.75
2018-12-21T08:46:34.185Z,61.80
2018-12-21T08:49:03.957Z,60.25
2018-12-21T08:51:33.313Z,59.58
2018-12-21T08:54:03.012Z,58.55
2018-12-21T08:56:32.857Z,61.00
2018-12-21T08:59:02.527Z,58.30
2018-12-21T09:01:31.977Z,57.45
2018-12-21T09:04:01.756Z,57.15
2018-12-21T09:06:31.355Z,57.85
2018-12-21T09:09:01.064Z,61.28
2018-12-21T09:11:30.927Z,61.30
2018-12-21T09:14:00.375Z,65.32
2018-12-21T09:16:30.506Z,63.17
2018-12-21T09:19:00.244Z,63.55
2018-12-21T09:21:30.033Z,61.45
2018-12-21T09:24:01.227Z,60.08
2018-12-21T09:26:29.374Z,60.95
2018-12-21T09:28:58.850Z,63.65
2018-12-21T09:31:28.355Z,61.40
2018-12-21T09:33:58.236Z,63.48
2018-12-21T09:36:27.866Z,64.65
2018-12-21T09:38:57.450Z,63.68
2018-12-21T09:41:27.491Z,66.22
2018-12-21T09:43:56.888Z,62.27
2018-12-21T09:46:26.524Z,62.15
2018-12-21T09:48:56.273Z,61.83
2018-12-21T09:51:25.658Z,66.33
2018-12-21T09:53:55.205Z,64.92
2018-12-21T09:56:24.976Z,64.87
2018-12-21T09:58:54.570Z,66.30
2018-12-21T10:01:24.012Z,64.62
2018-12-21T10:03:54.374Z,69.75
2018-12-21T10:06:23.759Z,68.62
2018-12-21T10:08:53.693Z,65.32
2018-12-21T10:11:22.994Z,66.37
2018-12-21T10:13:52.403Z,67.58
2018-12-21T10:16:22.107Z,67.85
2018-12-21T10:18:51.729Z,70.65
2018-12-21T10:21:21.313Z,67.87
2018-12-21T10:23:50.870Z,69.97
2018-12-21T10:26:20.443Z,66.37
2018-12-21T10:28:50.210Z,68.90
2018-12-21T10:31:19.956Z,72.42
2018-12-21T10:33:49.546Z,71.00
2018-12-21T10:36:19.236Z,69.35
2018-12-21T10:38:48.660Z,73.75
2018-12-21T10:41:18.240Z,71.80
2018-12-21T10:43:47.912Z,72.97
2018-12-21T10:46:17.651Z,74.40
2018-12-21T10:48:47.084Z,73.75
2018-12-21T10:51:16.618Z,73.25
2018-12-21T10:53:46.824Z,71.95
2018-12-21T10:56:16.181Z,75.35
2018-12-21T10:58:45.652Z,73.22
2018-12-21T11:01:15.366Z,72.82
2018-12-21T11:03:45.094Z,71.92
2018-12-21T11:06:14.710Z,73.83
2018-12-21T11:08:44.675Z,79.62
2018-12-21T11:11:14.216Z,76.17
2018-12-21T11:13:43.993Z,70.83
2018-12-21T11:16:13.463Z,75.83
2018-12-21T11:18:43.052Z,74.22
2018-12-21T11:21:12.678Z,75.32
2018-12-21T11:23:42.280Z,73.35
2018-12-21T11:26:11.851Z,76.37
2018-12-21T11:28:41.680Z,73.78
2018-12-21T11:31:11.523Z,76.37
2018-12-21T11:33:40.864Z,77.08
2018-12-21T11:36:10.695Z,78.17
2018-12-21T11:38:40.229Z,81.32
2018-12-21T11:41:09.654Z,85.20
2018-12-21T11:43:39.559Z,82.53
2018-12-21T11:46:09.188Z,85.90
2018-12-21T11:48:38.735Z,83.85
2018-12-21T11:51:08.591Z,89.80
2018-12-21T11:53:38.062Z,90.87
2018-12-21T11:56:07.679Z,93.85
2018-12-21T11:58:37.539Z,92.82
2018-12-21T12:01:07.224Z,93.60
2018-12-21T12:03:38.565Z,88.42
2018-12-21T12:06:08.634Z,89.00
2018-12-21T12:08:38.248Z,87.22
2018-12-21T12:11:08.058Z,88.37
2018-12-21T12:13:37.803Z,84.83
2018-12-21T12:16:07.298Z,81.87
2018-12-21T12:18:37.377Z,80.15
2018-12-21T12:21:06.911Z,81.30
2018-12-21T12:23:36.524Z,76.45
2018-12-21T12:26:06.118Z,79.77
2018-12-21T12:28:35.630Z,81.10
2018-12-21T12:31:05.159Z,85.97
2018-12-21T12:33:34.994Z,89.52
2018-12-21T12:36:05.249Z,87.53
2018-12-21T12:38:34.935Z,91.82
2018-12-21T12:41:06.775Z,80.00
2018-12-21T12:43:34.546Z,81.95
2018-12-21T12:46:04.162Z,75.12
2018-12-21T12:48:33.570Z,68.85
2018-12-21T12:51:03.276Z,71.55
2018-12-21T12:53:32.864Z,70.65
2018-12-21T12:56:05.126Z,72.00
2018-12-21T12:58:32.593Z,70.57
2018-12-21T13:01:02.300Z,72.25
2018-12-21T13:03:32.138Z,75.25
2018-12-21T13:06:01.816Z,75.60
2018-12-21T13:08:31.313Z,73.57
2018-12-21T13:11:01.275Z,73.42
2018-12-21T13:13:31.019Z,72.53
2018-12-21T13:16:00.655Z,74.97
2018-12-21T13:18:30.307Z,69.03
2018-12-21T13:20:59.863Z,75.92
2018-12-21T13:23:29.404Z,71.87
2018-12-21T13:25:58.915Z,73.02
2018-12-21T13:28:28.616Z,71.12
2018-12-21T13:30:58.326Z,73.28
2018-12-21T13:33:28.357Z,77.50
2018-12-21T13:35:57.828Z,77.87
2018-12-21T13:38:27.331Z,78.15
2018-12-21T13:40:56.775Z,76.72
2018-12-21T13:43:26.136Z,73.95
2018-12-21T13:45:55.961Z,75.52
2018-12-21T13:48:25.796Z,75.47
2018-12-21T13:50:55.384Z,75.40
2018-12-21T13:53:24.791Z,73.92
2018-12-21T13:55:54.920Z,76.05
2018-12-21T13:58:24.263Z,75.20
2018-12-21T14:00:53.705Z,72.58
2018-12-21T14:03:23.072Z,71.35
2018-12-21T14:05:52.822Z,73.25
2018-12-21T14:08:22.214Z,71.12
2018-12-21T14:10:52.058Z,71.92
2018-12-21T14:13:21.551Z,71.30
2018-12-21T14:15:50.955Z,73.10
2018-12-21T14:18:20.640Z,72.92
2018-12-21T14:20:50.160Z,74.75
2018-12-21T14:23:19.880Z,76.65
2018-12-21T14:25:49.512Z,75.87
2018-12-21T14:28:19.272Z,75.87
2018-12-21T14:30:49.114Z,75.75
2018-12-21T14:33:18.847Z,75.47
2018-12-21T14:35:48.532Z,72.92
2018-12-21T14:38:17.938Z,73.97
2018-12-21T14:40:47.583Z,75.47
2018-12-21T14:43:17.048Z,71.37
2018-12-21T14:45:46.770Z,73.60
2018-12-21T14:48:16.274Z,73.87
2018-12-21T14:50:45.894Z,68.60
2018-12-21T14:53:15.609Z,68.83
2018-12-21T14:55:45.287Z,71.70
2018-12-21T14:58:14.847Z,73.57
2018-12-21T15:00:44.392Z,71.57
2018-12-21T15:03:14.259Z,73.70
2018-12-21T15:05:43.822Z,71.92
2018-12-21T15:08:13.533Z,71.85
2018-12-21T15:10:43.055Z,72.30
2018-12-21T15:13:12.624Z,74.75
2018-12-21T15:15:42.171Z,74.03
2018-12-21T15:18:12.617Z,73.70
2018-12-21T15:20:42.212Z,72.82
2018-12-21T15:23:11.802Z,71.20
2018-12-21T15:25:46.002Z,72.67
2018-12-21T15:28:11.260Z,71.87
2018-12-21T15:30:40.683Z,71.75
2018-12-21T15:33:10.500Z,78.75
2018-12-21T15:35:40.225Z,122.80
2018-12-21T15:38:09.756Z,151.42
2018-12-21T15:40:39.713Z,214.20
2018-12-21T15:43:09.202Z,92.17
2018-12-21T15:45:38.987Z,71.15
2018-12-21T15:48:08.892Z,71.90
2018-12-21T15:50:38.372Z,68.22
2018-12-21T15:53:07.993Z,70.42
2018-12-21T15:55:37.725Z,67.42
2018-12-21T15:58:07.135Z,72.37
2018-12-21T16:00:36.517Z,76.50
2018-12-21T16:03:07.011Z,74.50
2018-12-21T16:05:36.755Z,73.78
2018-12-21T16:08:06.617Z,74.10
2018-12-21T16:10:36.404Z,75.75
2018-12-21T16:13:05.917Z,77.42
2018-12-21T16:15:35.477Z,75.65
2018-12-21T16:18:05.160Z,74.32
2018-12-21T16:20:34.745Z,77.60
2018-12-21T16:23:04.293Z,77.05
2018-12-21T16:25:34.158Z,77.53
2018-12-21T16:28:03.714Z,82.70
2018-12-21T16:30:33.480Z,78.57
2018-12-21T16:33:03.179Z,78.17
2018-12-21T16:35:32.582Z,80.38
2018-12-21T16:38:02.477Z,81.20
2018-12-21T16:40:31.886Z,81.15
2018-12-21T16:43:01.415Z,82.08
2018-12-21T16:45:31.037Z,84.60
2018-12-21T16:48:00.650Z,88.12
2018-12-21T16:50:31.088Z,94.05
2018-12-21T16:53:00.632Z,115.28
2018-12-21T16:55:30.208Z,150.00
2018-12-21T16:58:00.017Z,162.20
2018-12-21T17:00:29.480Z,156.22
2018-12-21T17:02:59.137Z,136.57
2018-12-21T17:05:28.756Z,131.00
2018-12-21T17:07:58.440Z,111.47
2018-12-21T17:10:28.017Z,107.03
2018-12-21T17:12:57.882Z,111.88
2018-12-21T17:15:27.415Z,100.05
2018-12-21T17:17:57.165Z,107.27
2018-12-21T17:20:26.895Z,108.20
2018-12-21T17:22:56.466Z,104.78
2018-12-21T17:25:28.204Z,108.80
2018-12-21T17:27:57.852Z,119.72
2018-12-21T17:30:27.467Z,127.12
2018-12-21T17:32:57.196Z,142.10
2018-12-21T17:35:26.641Z,140.52
2018-12-21T17:37:56.316Z,146.95
2018-12-21T17:40:26.039Z,151.80
2018-12-21T17:42:55.505Z,159.40
2018-12-21T17:45:24.927Z,162.00
2018-12-21T17:47:54.724Z,156.72
2018-12-21T17:50:24.129Z,144.35
2018-12-21T17:52:53.833Z,137.68
2018-12-21T17:55:23.524Z,125.35
2018-12-21T17:57:53.046Z,132.35
2018-12-21T18:00:22.584Z,142.47
2018-12-21T18:02:55.744Z,144.22
2018-12-21T18:05:27.510Z,155.95
2018-12-21T18:07:58.062Z,186.47
2018-12-21T18:10:27.777Z,217.45
2018-12-21T18:12:57.301Z,219.43
2018-12-21T18:15:28.194Z,197.53
2018-12-21T18:17:57.719Z,178.23
2018-12-21T18:20:27.503Z,328.60
2018-12-21T18:22:57.184Z,226.30
2018-12-21T18:25:29.134Z,268.80
2018-12-21T18:28:01.386Z,176.72
2018-12-21T18:30:35.388Z,142.72
2018-12-21T18:33:10.881Z,138.18
2018-12-21T18:35:36.301Z,129.47
2018-12-21T18:38:09.170Z,121.82
2018-12-21T18:40:38.872Z,109.65
2018-12-21T18:43:08.722Z,110.97
2018-12-21T18:45:38.439Z,121.40
2018-12-21T18:48:08.252Z,181.75
2018-12-21T18:50:37.887Z,224.67
2018-12-21T18:53:07.601Z,236.35
2018-12-21T18:55:37.543Z,243.90
2018-12-21T18:58:07.087Z,274.20
2018-12-21T19:00:36.482Z,294.95
2018-12-21T19:03:06.398Z,307.37
2018-12-21T19:05:36.151Z,306.17
2018-12-21T19:08:05.846Z,261.73
2018-12-21T19:10:35.464Z,241.27
2018-12-21T19:13:05.086Z,224.80
2018-12-21T19:15:34.641Z,211.87
2018-12-21T19:18:04.567Z,199.95
2018-12-21T19:20:34.184Z,190.97
2018-12-21T19:23:03.911Z,183.37
2018-12-21T19:25:33.744Z,157.60
2018-12-21T19:28:03.243Z,173.87
2018-12-21T19:30:32.935Z,172.47
2018-12-21T19:33:02.772Z,181.50
2018-12-21T19:35:32.327Z,184.43
2018-12-21T19:38:01.912Z,182.75
2018-12-21T19:40:31.553Z,172.43
2018-12-21T19:43:01.397Z,170.82
2018-12-21T19:45:30.850Z,172.80
2018-12-21T19:48:00.597Z,174.55
2018-12-21T19:50:30.679Z,177.93
2018-12-21T19:53:02.471Z,185.55
2018-12-21T19:55:39.267Z,174.07
2018-12-21T19:58:08.837Z,167.98
2018-12-21T20:00:38.315Z,171.43
2018-12-21T20:03:08.134Z,173.53
2018-12-21T20:05:37.772Z,209.07
2018-12-21T20:08:07.345Z,194.52
2018-12-21T20:10:37.023Z,179.42
2018-12-21T20:13:06.790Z,170.72
2018-12-21T20:15:36.621Z,173.93
2018-12-21T20:18:06.579Z,167.87
2018-12-21T20:20:36.147Z,169.30
2018-12-21T20:23:05.747Z,164.30
2018-12-21T20:25:35.549Z,162.70
2018-12-21T20:28:05.496Z,170.50
2018-12-21T20:30:35.286Z,182.70
2018-12-21T20:33:05.188Z,178.50
2018-12-21T20:35:34.744Z,161.73
2018-12-21T20:38:04.617Z,174.25
2018-12-21T20:40:34.357Z,173.75
2018-12-21T20:43:04.147Z,162.68
2018-12-21T20:45:34.599Z,163.37
2018-12-21T20:48:04.379Z,175.25
2018-12-21T20:50:33.856Z,165.43
2018-12-21T20:53:04.473Z,173.47
2018-12-21T20:55:34.288Z,172.35
2018-12-21T20:58:11.256Z,172.20
2018-12-21T21:00:41.951Z,172.47
2018-12-21T21:03:11.767Z,175.05
2018-12-21T21:05:41.490Z,160.50
2018-12-21T21:08:11.319Z,167.70
2018-12-21T21:10:41.004Z,159.22
2018-12-21T21:13:19.007Z,166.88
2018-12-21T21:15:40.302Z,159.25
2018-12-21T21:18:09.920Z,170.60
2018-12-21T21:20:39.332Z,157.07
2018-12-21T21:23:09.208Z,155.78
2018-12-21T21:25:38.736Z,159.40
2018-12-21T21:28:08.265Z,149.95
2018-12-21T21:30:39.400Z,137.22
2018-12-21T21:33:08.852Z,131.95
2018-12-21T21:35:38.396Z,124.40
2018-12-21T21:38:08.261Z,118.75
2018-12-21T21:40:39.159Z,112.22
2018-12-21T21:43:12.055Z,118.55
2018-12-21T21:45:41.761Z,136.70
2018-12-21T21:48:11.575Z,137.50
2018-12-21T21:50:41.473Z,118.02
2018-12-21T21:53:11.219Z,116.75
2018-12-21T21:55:40.915Z,113.12
2018-12-21T21:58:10.842Z,111.08
2018-12-21T22:00:41.147Z,102.65
2018-12-21T22:03:10.626Z,102.70
2018-12-21T22:05:40.696Z,100.22
2018-12-21T22:08:10.279Z,101.72
2018-12-21T22:10:39.875Z,100.12
2018-12-21T22:13:09.634Z,99.10
2018-12-21T22:15:39.177Z,101.60
2018-12-21T22:18:08.743Z,100.02
2018-12-21T22:20:38.216Z,105.92
2018-12-21T22:23:07.651Z,108.30
2018-12-21T22:25:37.465Z,105.25
2018-12-21T22:28:07.341Z,106.32
2018-12-21T22:30:36.956Z,105.27
2018-12-21T22:33:06.589Z,106.20
2018-12-21T22:35:36.376Z,105.22
2018-12-21T22:38:05.984Z,108.95
2018-12-21T22:40:35.568Z,103.65
2018-12-21T22:43:05.481Z,108.78
2018-12-21T22:45:35.227Z,105.78
2018-12-21T22:48:04.623Z,102.20
2018-12-21T22:50:34.266Z,103.47
2018-12-21T22:53:03.822Z,103.22
2018-12-21T22:55:33.455Z,110.12
2018-12-21T22:58:03.348Z,106.30
2018-12-21T23:00:36.550Z,105.40
2018-12-21T23:03:06.028Z,109.55
2018-12-21T23:05:35.767Z,112.88
2018-12-21T23:08:05.484Z,123.47
2018-12-21T23:10:35.213Z,122.67
2018-12-21T23:13:04.904Z,126.40
2018-12-21T23:15:34.604Z,120.08
2018-12-21T23:18:04.561Z,126.60
2018-12-21T23:20:34.030Z,122.02
2018-12-21T23:23:03.510Z,113.55
2018-12-21T23:25:33.395Z,116.25
2018-12-21T23:28:05.251Z,118.70
2018-12-21T23:30:32.779Z,113.22
2018-12-21T23:33:02.684Z,111.42
2018-12-21T23:35:32.428Z,105.67
2018-12-21T23:38:02.342Z,107.50
2018-12-21T23:40:31.924Z,107.95
2018-12-21T23:43:01.536Z,103.17
2018-12-21T23:45:31.467Z,102.10
2018-12-21T23:48:01.165Z,102.45
2018-12-21T23:50:30.867Z,105.47
2018-12-21T23:53:00.830Z,101.40
2018-12-21T23:55:30.386Z,98.90
2018-12-21T23:57:59.999Z,94.05
